sensor_id;sensor_type;location;lat;lon;timestamp;pressure;altitude;pressure_sealevel;temperature;humidity
24746;BME280;12845;52.042;6.838;2023-04-07T00:00:49;-18215.81;;;6.97;100.00
24746;BME280;12845;52.042;6.838;2023-04-07T00:03:15;-18216.63;;;7.00;100.00
24746;BME280;12845;52.042;6.838;2023-04-07T00:05:40;-18215.81;;;6.97;100.00
24746;BME280;12845;52.042;6.838;2023-04-07T00:08:05;-18215.94;;;6.98;100.00
24746;BME280;12845;52.042;6.838;2023-04-07T00:10:31;-18217.19;;;7.03;100.00
24746;BME280;12845;52.042;6.838;2023-04-07T00:12:57;-18217.31;;;7.03;100.00
24746;BME280;12845;52.042;6.838;2023-04-07T00:15:22;-18215.81;;;6.97;100.00
24746;BME280;12845;52.042;6.838;2023-04-07T00:17:47;-18215.00;;;6.94;100.00
24746;BME280;12845;52.042;6.838;2023-04-07T00:20:13;-18215.41;;;6.96;100.00
24746;BME280;12845;52.042;6.838;2023-04-07T00:22:38;-18214.56;;;6.93;100.00
24746;BME280;12845;52.042;6.838;2023-04-07T00:25:04;-18215.25;;;6.95;100.00
24746;BME280;12845;52.042;6.838;2023-04-07T00:27:30;-18216.09;;;6.98;100.00
24746;BME280;12845;52.042;6.838;2023-04-07T00:29:55;-18215.00;;;6.94;100.00
24746;BME280;12845;52.042;6.838;2023-04-07T00:32:21;-18212.50;;;6.85;100.00
24746;BME280;12845;52.042;6.838;2023-04-07T00:34:46;-18212.50;;;6.85;100.00
24746;BME280;12845;52.042;6.838;2023-04-07T00:37:12;-18212.66;;;6.86;100.00
24746;BME280;12845;52.042;6.838;2023-04-07T00:39:37;-18212.78;;;6.86;100.00
24746;BME280;12845;52.042;6.838;2023-04-07T00:42:03;-18212.38;;;6.85;100.00
24746;BME280;12845;52.042;6.838;2023-04-07T00:44:29;-18212.38;;;6.85;100.00
24746;BME280;12845;52.042;6.838;2023-04-07T00:46:55;-18212.50;;;6.85;100.00
24746;BME280;12845;52.042;6.838;2023-04-07T00:49:20;-18212.91;;;6.87;100.00
24746;BME280;12845;52.042;6.838;2023-04-07T00:51:46;-18214.03;;;6.91;100.00
24746;BME280;12845;52.042;6.838;2023-04-07T00:54:11;-18213.59;;;6.89;100.00
24746;BME280;12845;52.042;6.838;2023-04-07T00:56:37;-18213.59;;;6.89;100.00
24746;BME280;12845;52.042;6.838;2023-04-07T00:59:05;-18213.06;;;6.87;100.00
24746;BME280;12845;52.042;6.838;2023-04-07T01:04:12;-18213.06;;;6.87;100.00
24746;BME280;12845;52.042;6.838;2023-04-07T01:06:48;-18214.72;;;6.93;100.00
24746;BME280;12845;52.042;6.838;2023-04-07T01:09:24;-18218.56;;;7.08;100.00
24746;BME280;12845;52.042;6.838;2023-04-07T01:12:11;-18215.69;;;6.97;100.00
24746;BME280;12845;52.042;6.838;2023-04-07T01:14:44;-18216.22;;;6.99;100.00
24746;BME280;12845;52.042;6.838;2023-04-07T01:17:12;-18216.22;;;6.99;100.00
24746;BME280;12845;52.042;6.838;2023-04-07T01:19:42;-18215.69;;;6.97;100.00
24746;BME280;12845;52.042;6.838;2023-04-07T01:22:13;-18217.19;;;7.03;100.00
24746;BME280;12845;52.042;6.838;2023-04-07T01:25:05;-18215.94;;;6.98;100.00
24746;BME280;12845;52.042;6.838;2023-04-07T01:27:42;-18217.31;;;7.03;100.00
24746;BME280;12845;52.042;6.838;2023-04-07T01:30:14;-18217.19;;;7.03;100.00
24746;BME280;12845;52.042;6.838;2023-04-07T01:32:42;-18216.09;;;6.98;100.00
24746;BME280;12845;52.042;6.838;2023-04-07T01:35:12;-18216.09;;;6.98;100.00
24746;BME280;12845;52.042;6.838;2023-04-07T01:37:38;-18216.91;;;7.01;100.00
24746;BME280;12845;52.042;6.838;2023-04-07T01:40:06;-18215.81;;;6.97;100.00
24746;BME280;12845;52.042;6.838;2023-04-07T01:42:33;-18215.81;;;6.97;100.00
24746;BME280;12845;52.042;6.838;2023-04-07T01:44:59;-18217.06;;;7.02;100.00
24746;BME280;12845;52.042;6.838;2023-04-07T01:47:27;-18216.91;;;7.01;100.00
24746;BME280;12845;52.042;6.838;2023-04-07T01:49:56;-18217.47;;;7.04;100.00
24746;BME280;12845;52.042;6.838;2023-04-07T01:52:24;-18217.75;;;7.05;100.00
24746;BME280;12845;52.042;6.838;2023-04-07T01:54:50;-18217.06;;;7.02;100.00
24746;BME280;12845;52.042;6.838;2023-04-07T01:57:16;-18216.38;;;6.99;100.00
24746;BME280;12845;52.042;6.838;2023-04-07T01:59:41;-18218.44;;;7.07;100.00
24746;BME280;12845;52.042;6.838;2023-04-07T02:02:07;-18220.09;;;7.13;100.00
24746;BME280;12845;52.042;6.838;2023-04-07T02:04:54;-18219.94;;;7.13;100.00
24746;BME280;12845;52.042;6.838;2023-04-07T02:07:45;-18220.63;;;7.15;100.00
24746;BME280;12845;52.042;6.838;2023-04-07T02:10:14;-18219.81;;;7.12;100.00
24746;BME280;12845;52.042;6.838;2023-04-07T02:12:41;-18219.94;;;7.13;100.00
24746;BME280;12845;52.042;6.838;2023-04-07T02:15:08;-18220.38;;;7.14;100.00
24746;BME280;12845;52.042;6.838;2023-04-07T02:17:37;-18219.94;;;7.13;100.00
24746;BME280;12845;52.042;6.838;2023-04-07T02:20:05;-18219.25;;;7.10;100.00
24746;BME280;12845;52.042;6.838;2023-04-07T02:22:32;-18217.47;;;7.04;100.00
24746;BME280;12845;52.042;6.838;2023-04-07T02:24:57;-18216.50;;;7.00;100.00
24746;BME280;12845;52.042;6.838;2023-04-07T02:27:23;-18217.19;;;7.03;100.00
24746;BME280;12845;52.042;6.838;2023-04-07T02:29:48;-18215.53;;;6.96;100.00
24746;BME280;12845;52.042;6.838;2023-04-07T02:32:13;-18217.19;;;7.03;100.00
24746;BME280;12845;52.042;6.838;2023-04-07T02:34:39;-18217.19;;;7.03;100.00
24746;BME280;12845;52.042;6.838;2023-04-07T02:37:04;-18217.47;;;7.04;100.00
24746;BME280;12845;52.042;6.838;2023-04-07T02:39:30;-18217.59;;;7.04;100.00
24746;BME280;12845;52.042;6.838;2023-04-07T02:41:55;-18218.56;;;7.08;100.00
24746;BME280;12845;52.042;6.838;2023-04-07T02:44:20;-18219.94;;;7.13;100.00
24746;BME280;12845;52.042;6.838;2023-04-07T02:46:46;-18218.03;;;7.06;100.00
24746;BME280;12845;52.042;6.838;2023-04-07T02:49:11;-18218.56;;;7.08;100.00
24746;BME280;12845;52.042;6.838;2023-04-07T02:51:36;-18215.53;;;6.96;100.00
24746;BME280;12845;52.042;6.838;2023-04-07T02:54:02;-18215.41;;;6.96;100.00
24746;BME280;12845;52.042;6.838;2023-04-07T02:56:27;-18215.53;;;6.96;100.00
24746;BME280;12845;52.042;6.838;2023-04-07T02:58:52;-18216.09;;;6.98;100.00
24746;BME280;12845;52.042;6.838;2023-04-07T03:01:18;-18218.03;;;7.06;100.00
24746;BME280;12845;52.042;6.838;2023-04-07T03:03:43;-18218.44;;;7.07;100.00
24746;BME280;12845;52.042;6.838;2023-04-07T03:06:09;-18218.84;;;7.09;100.00
24746;BME280;12845;52.042;6.838;2023-04-07T03:08:34;-18218.03;;;7.06;100.00
24746;BME280;12845;52.042;6.838;2023-04-07T03:11:00;-18217.19;;;7.03;100.00
24746;BME280;12845;52.042;6.838;2023-04-07T03:13:25;-18217.47;;;7.04;100.00
24746;BME280;12845;52.042;6.838;2023-04-07T03:15:51;-18216.22;;;6.99;100.00
24746;BME280;12845;52.042;6.838;2023-04-07T03:18:17;-18217.06;;;7.02;100.00
24746;BME280;12845;52.042;6.838;2023-04-07T03:20:42;-18216.50;;;7.00;100.00
24746;BME280;12845;52.042;6.838;2023-04-07T03:23:08;-18217.06;;;7.02;100.00
24746;BME280;12845;52.042;6.838;2023-04-07T03:25:34;-18218.03;;;7.06;100.00
24746;BME280;12845;52.042;6.838;2023-04-07T03:27:59;-18216.78;;;7.01;100.00
24746;BME280;12845;52.042;6.838;2023-04-07T03:30:25;-18216.78;;;7.01;100.00
24746;BME280;12845;52.042;6.838;2023-04-07T03:32:51;-18217.06;;;7.02;100.00
24746;BME280;12845;52.042;6.838;2023-04-07T03:35:16;-18217.19;;;7.03;100.00
24746;BME280;12845;52.042;6.838;2023-04-07T03:37:42;-18216.91;;;7.01;100.00
24746;BME280;12845;52.042;6.838;2023-04-07T03:40:07;-18216.78;;;7.01;100.00
24746;BME280;12845;52.042;6.838;2023-04-07T03:42:33;-18216.50;;;7.00;100.00
24746;BME280;12845;52.042;6.838;2023-04-07T03:44:58;-18217.75;;;7.05;100.00
24746;BME280;12845;52.042;6.838;2023-04-07T03:47:24;-18217.75;;;7.05;100.00
24746;BME280;12845;52.042;6.838;2023-04-07T03:49:49;-18215.69;;;6.97;100.00
24746;BME280;12845;52.042;6.838;2023-04-07T03:52:15;-18215.13;;;6.95;100.00
24746;BME280;12845;52.042;6.838;2023-04-07T03:54:40;-18215.00;;;6.94;100.00
24746;BME280;12845;52.042;6.838;2023-04-07T03:57:06;-18214.72;;;6.93;100.00
24746;BME280;12845;52.042;6.838;2023-04-07T03:59:31;-18213.75;;;6.90;100.00
24746;BME280;12845;52.042;6.838;2023-04-07T04:01:57;-18213.06;;;6.87;100.00
24746;BME280;12845;52.042;6.838;2023-04-07T04:04:22;-18213.75;;;6.90;100.00
24746;BME280;12845;52.042;6.838;2023-04-07T04:06:49;-18213.06;;;6.87;100.00
24746;BME280;12845;52.042;6.838;2023-04-07T04:09:14;-18213.59;;;6.89;100.00
24746;BME280;12845;52.042;6.838;2023-04-07T04:11:40;-18213.06;;;6.87;100.00
24746;BME280;12845;52.042;6.838;2023-04-07T04:14:06;-18213.47;;;6.89;100.00
24746;BME280;12845;52.042;6.838;2023-04-07T04:16:31;-18213.06;;;6.87;100.00
24746;BME280;12845;52.042;6.838;2023-04-07T04:18:57;-18212.22;;;6.84;100.00
24746;BME280;12845;52.042;6.838;2023-04-07T04:21:22;-18211.69;;;6.82;100.00
24746;BME280;12845;52.042;6.838;2023-04-07T04:23:47;-18213.06;;;6.87;100.00
24746;BME280;12845;52.042;6.838;2023-04-07T04:26:13;-18213.34;;;6.88;100.00
24746;BME280;12845;52.042;6.838;2023-04-07T04:28:38;-18212.66;;;6.86;100.00
24746;BME280;12845;52.042;6.838;2023-04-07T04:31:03;-18211.81;;;6.83;100.00
24746;BME280;12845;52.042;6.838;2023-04-07T04:33:29;-18211.13;;;6.80;100.00
24746;BME280;12845;52.042;6.838;2023-04-07T04:35:55;-18211.53;;;6.82;100.00
24746;BME280;12845;52.042;6.838;2023-04-07T04:38:20;-18211.81;;;6.83;100.00
24746;BME280;12845;52.042;6.838;2023-04-07T04:40:45;-18211.13;;;6.80;100.00
24746;BME280;12845;52.042;6.838;2023-04-07T04:43:11;-18211.94;;;6.83;100.00
24746;BME280;12845;52.042;6.838;2023-04-07T04:45:36;-18211.13;;;6.80;100.00
24746;BME280;12845;52.042;6.838;2023-04-07T04:48:12;-18211.00;;;6.80;100.00
24746;BME280;12845;52.042;6.838;2023-04-07T04:50:37;-18212.09;;;6.84;100.00
24746;BME280;12845;52.042;6.838;2023-04-07T04:53:02;-18212.22;;;6.84;100.00
24746;BME280;12845;52.042;6.838;2023-04-07T04:55:28;-18212.38;;;6.85;100.00
24746;BME280;12845;52.042;6.838;2023-04-07T04:57:53;-18213.34;;;6.88;100.00
24746;BME280;12845;52.042;6.838;2023-04-07T05:00:19;-18215.25;;;6.95;100.00
24746;BME280;12845;52.042;6.838;2023-04-07T05:02:44;-18215.41;;;6.96;100.00
24746;BME280;12845;52.042;6.838;2023-04-07T05:05:11;-18213.59;;;6.89;100.00
24746;BME280;12845;52.042;6.838;2023-04-07T05:07:36;-18213.59;;;6.89;100.00
24746;BME280;12845;52.042;6.838;2023-04-07T05:10:02;-18215.13;;;6.95;100.00
24746;BME280;12845;52.042;6.838;2023-04-07T05:12:28;-18214.44;;;6.92;100.00
24746;BME280;12845;52.042;6.838;2023-04-07T05:14:53;-18214.16;;;6.91;100.00
24746;BME280;12845;52.042;6.838;2023-04-07T05:17:19;-18213.59;;;6.89;100.00
24746;BME280;12845;52.042;6.838;2023-04-07T05:19:44;-18213.59;;;6.89;100.00
24746;BME280;12845;52.042;6.838;2023-04-07T05:22:09;-18212.50;;;6.85;100.00
24746;BME280;12845;52.042;6.838;2023-04-07T05:24:35;-18212.22;;;6.84;100.00
24746;BME280;12845;52.042;6.838;2023-04-07T05:27:00;-18211.94;;;6.83;100.00
24746;BME280;12845;52.042;6.838;2023-04-07T05:29:26;-18211.69;;;6.82;100.00
24746;BME280;12845;52.042;6.838;2023-04-07T05:31:51;-18211.81;;;6.83;100.00
24746;BME280;12845;52.042;6.838;2023-04-07T05:34:17;-18212.22;;;6.84;100.00
24746;BME280;12845;52.042;6.838;2023-04-07T05:36:42;-18212.09;;;6.84;100.00
24746;BME280;12845;52.042;6.838;2023-04-07T05:39:07;-18212.22;;;6.84;100.00
24746;BME280;12845;52.042;6.838;2023-04-07T05:41:33;-18212.09;;;6.84;100.00
24746;BME280;12845;52.042;6.838;2023-04-07T05:43:58;-18212.78;;;6.86;100.00
24746;BME280;12845;52.042;6.838;2023-04-07T05:46:23;-18214.28;;;6.92;100.00
24746;BME280;12845;52.042;6.838;2023-04-07T05:48:49;-18214.16;;;6.91;100.00
24746;BME280;12845;52.042;6.838;2023-04-07T05:51:14;-18214.56;;;6.93;100.00
24746;BME280;12845;52.042;6.838;2023-04-07T05:53:40;-18214.44;;;6.92;100.00
24746;BME280;12845;52.042;6.838;2023-04-07T05:56:05;-18214.16;;;6.91;100.00
24746;BME280;12845;52.042;6.838;2023-04-07T05:58:31;-18214.72;;;6.93;100.00
24746;BME280;12845;52.042;6.838;2023-04-07T06:00:57;-18214.03;;;6.91;100.00
24746;BME280;12845;52.042;6.838;2023-04-07T06:03:22;-18214.56;;;6.93;100.00
24746;BME280;12845;52.042;6.838;2023-04-07T06:05:48;-18214.56;;;6.93;100.00
24746;BME280;12845;52.042;6.838;2023-04-07T06:08:14;-18214.16;;;6.91;100.00
24746;BME280;12845;52.042;6.838;2023-04-07T06:10:39;-18214.72;;;6.93;100.00
24746;BME280;12845;52.042;6.838;2023-04-07T06:13:06;-18215.69;;;6.97;100.00
24746;BME280;12845;52.042;6.838;2023-04-07T06:15:31;-18215.81;;;6.97;100.00
24746;BME280;12845;52.042;6.838;2023-04-07T06:17:57;-18214.28;;;6.92;100.00
24746;BME280;12845;52.042;6.838;2023-04-07T06:20:22;-18215.25;;;6.95;100.00
24746;BME280;12845;52.042;6.838;2023-04-07T06:22:48;-18215.94;;;6.98;100.00
24746;BME280;12845;52.042;6.838;2023-04-07T06:25:13;-18215.94;;;6.98;100.00
24746;BME280;12845;52.042;6.838;2023-04-07T06:27:39;-18216.50;;;7.00;100.00
24746;BME280;12845;52.042;6.838;2023-04-07T06:30:04;-18217.06;;;7.02;100.00
24746;BME280;12845;52.042;6.838;2023-04-07T06:32:30;-18217.75;;;7.05;100.00
24746;BME280;12845;52.042;6.838;2023-04-07T06:34:55;-18216.91;;;7.01;100.00
24746;BME280;12845;52.042;6.838;2023-04-07T06:37:21;-18216.91;;;7.01;100.00
24746;BME280;12845;52.042;6.838;2023-04-07T06:39:49;-18218.28;;;7.07;100.00
24746;BME280;12845;52.042;6.838;2023-04-07T06:42:14;-18218.44;;;7.07;100.00
24746;BME280;12845;52.042;6.838;2023-04-07T06:44:40;-18218.16;;;7.06;100.00
24746;BME280;12845;52.042;6.838;2023-04-07T06:47:05;-18219.81;;;7.12;100.00
24746;BME280;12845;52.042;6.838;2023-04-07T06:49:30;-18219.25;;;7.10;100.00
24746;BME280;12845;52.042;6.838;2023-04-07T06:51:56;-18218.97;;;7.09;100.00
24746;BME280;12845;52.042;6.838;2023-04-07T06:54:21;-18221.59;;;7.19;100.00
24746;BME280;12845;52.042;6.838;2023-04-07T06:56:46;-18221.59;;;7.19;100.00
24746;BME280;12845;52.042;6.838;2023-04-07T06:59:12;-18220.78;;;7.16;100.00
24746;BME280;12845;52.042;6.838;2023-04-07T07:01:37;-18221.59;;;7.19;100.00
24746;BME280;12845;52.042;6.838;2023-04-07T07:04:03;-18222.97;;;7.24;100.00
24746;BME280;12845;52.042;6.838;2023-04-07T07:06:30;-18223.41;;;7.26;100.00
24746;BME280;12845;52.042;6.838;2023-04-07T07:08:56;-18224.91;;;7.31;100.00
24746;BME280;12845;52.042;6.838;2023-04-07T07:11:21;-18224.91;;;7.31;100.00
24746;BME280;12845;52.042;6.838;2023-04-07T07:13:46;-18225.88;;;7.35;100.00
24746;BME280;12845;52.042;6.838;2023-04-07T07:16:12;-18226.28;;;7.36;100.00
24746;BME280;12845;52.042;6.838;2023-04-07T07:18:37;-18227.13;;;7.39;100.00
24746;BME280;12845;52.042;6.838;2023-04-07T07:21:03;-18226.97;;;7.39;100.00
24746;BME280;12845;52.042;6.838;2023-04-07T07:23:29;-18227.53;;;7.41;100.00
24746;BME280;12845;52.042;6.838;2023-04-07T07:25:54;-18227.66;;;7.41;100.00
24746;BME280;12845;52.042;6.838;2023-04-07T07:28:20;-18228.75;;;7.45;100.00
24746;BME280;12845;52.042;6.838;2023-04-07T07:30:46;-18228.75;;;7.45;100.00
24746;BME280;12845;52.042;6.838;2023-04-07T07:33:12;-18228.22;;;7.43;100.00
24746;BME280;12845;52.042;6.838;2023-04-07T07:35:37;-18232.75;;;7.60;100.00
24746;BME280;12845;52.042;6.838;2023-04-07T07:38:03;-18233.16;;;7.62;100.00
24746;BME280;12845;52.042;6.838;2023-04-07T07:40:28;-18235.09;;;7.69;100.00
24746;BME280;12845;52.042;6.838;2023-04-07T07:42:53;-18236.19;;;7.73;100.00
24746;BME280;12845;52.042;6.838;2023-04-07T07:45:19;-18236.19;;;7.73;100.00
24746;BME280;12845;52.042;6.838;2023-04-07T07:47:45;-18232.47;;;7.59;100.00
24746;BME280;12845;52.042;6.838;2023-04-07T07:50:10;-18231.66;;;7.56;100.00
24746;BME280;12845;52.042;6.838;2023-04-07T07:52:36;-18235.66;;;7.71;100.00
24746;BME280;12845;52.042;6.838;2023-04-07T07:55:01;-18235.09;;;7.69;100.00
24746;BME280;12845;52.042;6.838;2023-04-07T07:57:27;-18234.00;;;7.65;100.00
24746;BME280;12845;52.042;6.838;2023-04-07T07:59:52;-18235.66;;;7.71;100.00
24746;BME280;12845;52.042;6.838;2023-04-07T08:02:18;-18237.72;;;7.79;100.00
24746;BME280;12845;52.042;6.838;2023-04-07T08:04:43;-18237.84;;;7.79;100.00
24746;BME280;12845;52.042;6.838;2023-04-07T08:07:09;-18237.84;;;7.79;100.00
24746;BME280;12845;52.042;6.838;2023-04-07T08:09:36;-18241.16;;;7.91;100.00
24746;BME280;12845;52.042;6.838;2023-04-07T08:12:01;-18242.53;;;7.97;100.00
24746;BME280;12845;52.042;6.838;2023-04-07T08:14:28;-18241.16;;;7.91;100.00
24746;BME280;12845;52.042;6.838;2023-04-07T08:16:54;-18241.31;;;7.92;100.00
24746;BME280;12845;52.042;6.838;2023-04-07T08:19:20;-18241.84;;;7.94;100.00
24746;BME280;12845;52.042;6.838;2023-04-07T08:21:45;-18240.88;;;7.90;100.00
24746;BME280;12845;52.042;6.838;2023-04-07T08:24:11;-18237.03;;;7.76;100.00
24746;BME280;12845;52.042;6.838;2023-04-07T08:26:36;-18234.00;;;7.65;100.00
24746;BME280;12845;52.042;6.838;2023-04-07T08:29:02;-18236.75;;;7.75;100.00
24746;BME280;12845;52.042;6.838;2023-04-07T08:31:27;-18237.44;;;7.78;100.00
24746;BME280;12845;52.042;6.838;2023-04-07T08:33:54;-18239.91;;;7.87;100.00
24746;BME280;12845;52.042;6.838;2023-04-07T08:36:23;-18239.66;;;7.86;100.00
24746;BME280;12845;52.042;6.838;2023-04-07T08:38:48;-18240.88;;;7.90;100.00
24746;BME280;12845;52.042;6.838;2023-04-07T08:41:17;-18242.25;;;7.96;100.00
24746;BME280;12845;52.042;6.838;2023-04-07T08:43:45;-18243.63;;;8.01;100.00
24746;BME280;12845;52.042;6.838;2023-04-07T08:46:13;-18244.88;;;8.05;100.00
24746;BME280;12845;52.042;6.838;2023-04-07T08:48:43;-18244.19;;;8.03;100.00
24746;BME280;12845;52.042;6.838;2023-04-07T08:51:08;-18245.16;;;8.06;100.00
24746;BME280;12845;52.042;6.838;2023-04-07T08:53:47;-18246.13;;;8.10;100.00
24746;BME280;12845;52.042;6.838;2023-04-07T08:56:15;-18249.00;;;8.21;100.00
24746;BME280;12845;52.042;6.838;2023-04-07T08:58:41;-18249.00;;;8.21;100.00
24746;BME280;12845;52.042;6.838;2023-04-07T09:01:08;-18247.50;;;8.15;100.00
24746;BME280;12845;52.042;6.838;2023-04-07T09:03:33;-18248.19;;;8.18;100.00
24746;BME280;12845;52.042;6.838;2023-04-07T09:06:00;-18247.50;;;8.15;100.00
24746;BME280;12845;52.042;6.838;2023-04-07T09:08:26;-18248.59;;;8.19;100.00
24746;BME280;12845;52.042;6.838;2023-04-07T09:10:52;-18249.84;;;8.24;100.00
24746;BME280;12845;52.042;6.838;2023-04-07T09:13:18;-18250.25;;;8.25;100.00
24746;BME280;12845;52.042;6.838;2023-04-07T09:15:43;-18248.31;;;8.18;100.00
24746;BME280;12845;52.042;6.838;2023-04-07T09:18:09;-18249.41;;;8.22;100.00
24746;BME280;12845;52.042;6.838;2023-04-07T09:20:57;-18249.16;;;8.21;100.00
24746;BME280;12845;52.042;6.838;2023-04-07T09:23:38;-18250.38;;;8.26;100.00
24746;BME280;12845;52.042;6.838;2023-04-07T09:26:21;-18249.16;;;8.21;100.00
24746;BME280;12845;52.042;6.838;2023-04-07T09:28:57;-18249.41;;;8.22;100.00
24746;BME280;12845;52.042;6.838;2023-04-07T09:34:23;-18250.66;;;8.27;100.00
24746;BME280;12845;52.042;6.838;2023-04-07T09:36:49;-18254.38;;;8.41;100.00
24746;BME280;12845;52.042;6.838;2023-04-07T09:39:15;-18252.19;;;8.32;100.00
24746;BME280;12845;52.042;6.838;2023-04-07T09:41:40;-18252.72;;;8.34;100.00
24746;BME280;12845;52.042;6.838;2023-04-07T09:44:06;-18254.25;;;8.40;100.00
24746;BME280;12845;52.042;6.838;2023-04-07T09:46:31;-18258.09;;;8.54;100.00
24746;BME280;12845;52.042;6.838;2023-04-07T09:49:03;-18256.72;;;8.49;100.00
24746;BME280;12845;52.042;6.838;2023-04-07T09:51:29;-18258.50;;;8.56;100.00
24746;BME280;12845;52.042;6.838;2023-04-07T09:53:55;-18257.13;;;8.51;100.00
24746;BME280;12845;52.042;6.838;2023-04-07T09:56:21;-18256.31;;;8.48;100.00
24746;BME280;12845;52.042;6.838;2023-04-07T09:58:49;-18256.31;;;8.48;100.00
24746;BME280;12845;52.042;6.838;2023-04-07T10:01:19;-18254.66;;;8.42;100.00
24746;BME280;12845;52.042;6.838;2023-04-07T10:03:46;-18255.63;;;8.45;100.00
24746;BME280;12845;52.042;6.838;2023-04-07T10:06:12;-18257.69;;;8.53;100.00
24746;BME280;12845;52.042;6.838;2023-04-07T10:08:40;-18256.72;;;8.49;100.00
24746;BME280;12845;52.042;6.838;2023-04-07T10:11:07;-18259.06;;;8.58;100.00
24746;BME280;12845;52.042;6.838;2023-04-07T10:13:35;-18261.81;;;8.68;100.00
24746;BME280;12845;52.042;6.838;2023-04-07T10:16:05;-18262.50;;;8.71;100.00
24746;BME280;12845;52.042;6.838;2023-04-07T10:18:33;-18263.47;;;8.74;100.00
24746;BME280;12845;52.042;6.838;2023-04-07T10:21:06;-18265.13;;;8.80;100.00
24746;BME280;12845;52.042;6.838;2023-04-07T10:24:04;-18265.13;;;8.80;100.00
24746;BME280;12845;52.042;6.838;2023-04-07T10:26:34;-18266.78;;;8.87;100.00
24746;BME280;12845;52.042;6.838;2023-04-07T10:29:08;-18265.41;;;8.81;100.00
24746;BME280;12845;52.042;6.838;2023-04-07T10:31:36;-18265.81;;;8.83;100.00
24746;BME280;12845;52.042;6.838;2023-04-07T10:34:03;-18267.59;;;8.90;100.00
24746;BME280;12845;52.042;6.838;2023-04-07T10:36:30;-18267.59;;;8.90;100.00
24746;BME280;12845;52.042;6.838;2023-04-07T10:41:40;-18270.34;;;9.00;100.00
24746;BME280;12845;52.042;6.838;2023-04-07T10:44:06;-18271.84;;;9.06;100.00
24746;BME280;12845;52.042;6.838;2023-04-07T10:49:20;-18274.47;;;9.15;100.00
24746;BME280;12845;52.042;6.838;2023-04-07T10:54:37;-18272.97;;;9.10;100.00
24746;BME280;12845;52.042;6.838;2023-04-07T10:59:31;-18274.88;;;9.17;100.00
24746;BME280;12845;52.042;6.838;2023-04-07T11:04:43;-18275.56;;;9.19;100.00
24746;BME280;12845;52.042;6.838;2023-04-07T11:07:10;-18275.72;;;9.20;100.00
24746;BME280;12845;52.042;6.838;2023-04-07T11:09:36;-18274.75;;;9.16;100.00
24746;BME280;12845;52.042;6.838;2023-04-07T11:12:02;-18277.09;;;9.25;100.00
24746;BME280;12845;52.042;6.838;2023-04-07T11:14:31;-18277.22;;;9.25;100.00
24746;BME280;12845;52.042;6.838;2023-04-07T11:16:58;-18274.88;;;9.17;100.00
24746;BME280;12845;52.042;6.838;2023-04-07T11:19:24;-18272.13;;;9.07;100.00
24746;BME280;12845;52.042;6.838;2023-04-07T11:21:49;-18271.16;;;9.03;100.00
24746;BME280;12845;52.042;6.838;2023-04-07T11:24:34;-18270.75;;;9.01;100.00
24746;BME280;12845;52.042;6.838;2023-04-07T11:27:02;-18269.25;;;8.96;100.00
24746;BME280;12845;52.042;6.838;2023-04-07T11:29:31;-18270.06;;;8.99;100.00
24746;BME280;12845;52.042;6.838;2023-04-07T11:31:57;-18270.06;;;8.99;100.00
24746;BME280;12845;52.042;6.838;2023-04-07T11:34:29;-18269.25;;;8.96;100.00
24746;BME280;12845;52.042;6.838;2023-04-07T11:36:54;-18269.25;;;8.96;100.00
24746;BME280;12845;52.042;6.838;2023-04-07T11:39:24;-18270.63;;;9.01;100.00
24746;BME280;12845;52.042;6.838;2023-04-07T11:41:55;-18269.09;;;8.95;100.00
24746;BME280;12845;52.042;6.838;2023-04-07T11:44:21;-18272.28;;;9.07;100.00
24746;BME280;12845;52.042;6.838;2023-04-07T11:46:57;-18272.97;;;9.10;100.00
24746;BME280;12845;52.042;6.838;2023-04-07T11:49:24;-18272.81;;;9.09;100.00
24746;BME280;12845;52.042;6.838;2023-04-07T11:52:01;-18271.72;;;9.05;100.00
24746;BME280;12845;52.042;6.838;2023-04-07T11:54:55;-18270.63;;;9.01;100.00
24746;BME280;12845;52.042;6.838;2023-04-07T11:57:24;-18269.94;;;8.98;100.00
24746;BME280;12845;52.042;6.838;2023-04-07T11:59:50;-18272.41;;;9.08;100.00
24746;BME280;12845;52.042;6.838;2023-04-07T12:02:32;-18270.06;;;8.99;100.00
24746;BME280;12845;52.042;6.838;2023-04-07T12:04:58;-18271.72;;;9.05;100.00
24746;BME280;12845;52.042;6.838;2023-04-07T12:07:23;-18270.47;;;9.00;100.00
24746;BME280;12845;52.042;6.838;2023-04-07T12:09:49;-18271.72;;;9.05;100.00
24746;BME280;12845;52.042;6.838;2023-04-07T12:12:24;-18273.22;;;9.11;100.00
24746;BME280;12845;52.042;6.838;2023-04-07T12:14:51;-18272.13;;;9.07;100.00
24746;BME280;12845;52.042;6.838;2023-04-07T12:17:24;-18275.03;;;9.17;100.00
24746;BME280;12845;52.042;6.838;2023-04-07T12:19:49;-18276.94;;;9.24;100.00
24746;BME280;12845;52.042;6.838;2023-04-07T12:22:16;-18277.91;;;9.28;100.00
24746;BME280;12845;52.042;6.838;2023-04-07T12:24:41;-18277.78;;;9.27;100.00
24746;BME280;12845;52.042;6.838;2023-04-07T12:27:07;-18277.78;;;9.27;100.00
24746;BME280;12845;52.042;6.838;2023-04-07T12:29:33;-18277.63;;;9.27;100.00
24746;BME280;12845;52.042;6.838;2023-04-07T12:31:59;-18279.56;;;9.34;100.00
24746;BME280;12845;52.042;6.838;2023-04-07T12:34:25;-18282.03;;;9.43;100.00
24746;BME280;12845;52.042;6.838;2023-04-07T12:36:51;-18282.88;;;9.46;100.00
24746;BME280;12845;52.042;6.838;2023-04-07T12:39:16;-18281.75;;;9.42;100.00
24746;BME280;12845;52.042;6.838;2023-04-07T12:41:42;-18281.34;;;9.41;100.00
24746;BME280;12845;52.042;6.838;2023-04-07T12:44:09;-18280.81;;;9.39;100.00
24746;BME280;12845;52.042;6.838;2023-04-07T12:46:35;-18281.34;;;9.41;100.00
24746;BME280;12845;52.042;6.838;2023-04-07T12:49:00;-18280.25;;;9.37;100.00
24746;BME280;12845;52.042;6.838;2023-04-07T12:51:26;-18279.97;;;9.36;100.00
24746;BME280;12845;52.042;6.838;2023-04-07T12:53:52;-18280.38;;;9.37;100.00
24746;BME280;12845;52.042;6.838;2023-04-07T12:56:18;-18279.00;;;9.32;100.00
24746;BME280;12845;52.042;6.838;2023-04-07T12:58:44;-18280.81;;;9.39;100.00
24746;BME280;12845;52.042;6.838;2023-04-07T13:01:10;-18280.53;;;9.38;100.00
24746;BME280;12845;52.042;6.838;2023-04-07T13:03:35;-18280.81;;;9.39;100.00
24746;BME280;12845;52.042;6.838;2023-04-07T13:06:01;-18279.44;;;9.34;100.00
24746;BME280;12845;52.042;6.838;2023-04-07T13:08:27;-18279.97;;;9.36;100.00